Time;durP1;ratioP1;P1;durP2;ratioP2;P2;SDS_P1;SDS_P2;PMS_P1;PMS_P2;Temp;Humidity;BMP_temperature;BMP_pressure;BME280_temperature;BME280_humidity;BME280_pressure;Samples;Min_cycle;Max_cycle;Signal;HPM_P1;HPM_P2
2021/08/23 00:01:55;;;;;;;4.40;3.27;;;;;;;;;;6218808;23;20955;-92
2021/08/23 00:04:22;;;;;;;3.67;3.27;;;;;;;;;;6218834;23;20419;-91
2021/08/23 00:06:49;;;;;;;3.77;2.90;;;;;;;;;;6213473;23;20419;-92
2021/08/23 00:09:19;;;;;;;3.60;2.93;;;;;;;;;;6218788;23;20410;-92
2021/08/23 00:11:48;;;;;;;5.67;3.27;;;;;;;;;;6217660;23;20418;-93
2021/08/23 00:14:15;;;;;;;5.23;3.50;;;;;;;;;;6219578;23;20752;-92
2021/08/23 00:16:42;;;;;;;5.20;4.00;;;;;;;;;;6218231;23;21065;-92
2021/08/23 00:19:09;;;;;;;4.70;3.47;;;;;;;;;;6218518;23;20456;-92
2021/08/23 00:21:42;;;;;;;8.00;3.50;;;;;;;;;;6218633;23;20418;-93
2021/08/23 00:24:21;;;;;;;3.80;3.30;;;;;;;;;;6218585;23;20415;-94
2021/08/23 00:26:50;;;;;;;3.80;3.20;;;;;;;;;;6217315;23;20730;-91
2021/08/23 00:29:17;;;;;;;4.20;3.23;;;;;;;;;;6218512;23;20415;-93
2021/08/23 00:31:44;;;;;;;4.03;3.20;;;;;;;;;;6218399;23;20783;-93
2021/08/23 00:34:12;;;;;;;4.20;3.40;;;;;;;;;;6218260;23;20486;-93
2021/08/23 00:36:39;;;;;;;5.43;3.60;;;;;;;;;;6218148;23;20699;-92
2021/08/23 00:39:08;;;;;;;4.83;3.20;;;14.30;99.90;;;;;;6217865;23;20445;-92
2021/08/23 00:41:35;;;;;;;4.57;3.60;;;;;;;;;;6217111;23;20415;-94
2021/08/23 00:44:04;;;;;;;4.50;3.10;;;;;;;;;;6218089;23;20947;-93
2021/08/23 00:46:31;;;;;;;4.77;3.27;;;;;;;;;;6213015;23;20447;-93
2021/08/23 00:48:58;;;;;;;4.57;3.40;;;;;;;;;;6217784;23;20421;-92
2021/08/23 00:51:26;;;;;;;3.93;3.53;;;;;;;;;;6213591;23;20411;-91
2021/08/23 00:53:53;;;;;;;5.03;3.27;;;;;;;;;;6218484;23;20407;-92
2021/08/23 00:56:20;;;;;;;5.70;3.23;;;;;;;;;;6217206;23;20398;-91
2021/08/23 00:58:48;;;;;;;3.90;3.50;;;;;;;;;;6217970;23;20421;-92
2021/08/23 01:01:19;;;;;;;3.80;3.50;;;14.10;99.90;;;;;;6218545;23;20422;-91
2021/08/23 01:03:54;;;;;;;4.50;3.50;;;14.10;99.90;;;;;;6217821;23;20416;-92
2021/08/23 01:06:22;;;;;;;3.83;3.03;;;;;;;;;;6217755;23;20402;-91
2021/08/23 01:08:54;;;;;;;3.33;3.03;;;14.10;99.90;;;;;;6212969;23;20525;-92
2021/08/23 01:11:21;;;;;;;4.77;3.17;;;;;;;;;;6216836;23;20420;-93
2021/08/23 01:13:50;;;;;;;3.60;2.80;;;14.10;99.90;;;;;;6218277;23;20400;-94
2021/08/23 01:16:19;;;;;;;3.07;2.50;;;;;;;;;;6217909;23;20742;-92
2021/08/23 01:18:47;;;;;;;3.13;2.83;;;;;;;;;;6212074;23;20931;-91
2021/08/23 01:21:19;;;;;;;9.83;2.60;;;14.10;99.90;;;;;;6219115;23;20388;-93
2021/08/23 01:23:48;;;;;;;3.47;2.73;;;14.10;99.90;;;;;;6217709;23;20498;-92
2021/08/23 01:26:17;;;;;;;2.73;2.53;;;;;;;;;;6211199;23;20404;-92
2021/08/23 01:28:52;;;;;;;3.77;2.17;;;14.10;99.90;;;;;;6217751;23;20415;-91
2021/08/23 01:31:31;;;;;;;3.97;2.57;;;14.20;99.90;;;;;;6209926;23;20414;-92
2021/08/23 01:33:59;;;;;;;3.30;2.70;;;;;;;;;;6214008;23;20394;-93
2021/08/23 01:36:27;;;;;;;3.33;2.67;;;;;;;;;;6212119;23;20411;-91
2021/08/23 01:38:54;;;;;;;4.00;3.23;;;;;;;;;;6218082;23;20407;-92
2021/08/23 01:41:21;;;;;;;5.40;3.20;;;;;;;;;;6217428;23;20418;-93
2021/08/23 01:43:48;;;;;;;5.13;2.93;;;;;;;;;;6217891;23;20417;-91
2021/08/23 01:46:15;;;;;;;2.83;2.57;;;;;;;;;;6214300;23;20439;-92
2021/08/23 01:48:43;;;;;;;3.90;2.93;;;;;;;;;;6212961;23;20419;-91
2021/08/23 01:51:11;;;;;;;3.20;2.53;;;;;;;;;;6214053;23;20480;-91
2021/08/23 01:53:38;;;;;;;5.60;3.20;;;;;;;;;;6209983;23;20468;-92
2021/08/23 01:56:06;;;;;;;4.93;2.63;;;;;;;;;;6218862;23;20418;-93
2021/08/23 01:58:33;;;;;;;3.70;2.93;;;;;;;;;;6215157;23;20418;-92
2021/08/23 02:01:00;;;;;;;2.83;2.33;;;;;;;;;;6217349;23;20454;-93
2021/08/23 02:03:27;;;;;;;3.23;2.60;;;;;;;;;;6218079;23;20405;-93
2021/08/23 02:05:54;;;;;;;4.87;3.00;;;;;;;;;;6216774;23;20422;-91
2021/08/23 02:08:23;;;;;;;6.20;2.97;;;;;;;;;;6216646;23;20415;-93
2021/08/23 02:10:50;;;;;;;3.00;2.67;;;;;;;;;;6204331;23;20437;-94
2021/08/23 02:13:17;;;;;;;4.77;2.90;;;;;;;;;;6217772;23;20391;-93
2021/08/23 02:15:44;;;;;;;7.53;2.70;;;;;;;;;;6211294;23;20400;-93
2021/08/23 02:18:11;;;;;;;3.27;2.70;;;;;;;;;;6210982;23;20435;-92
2021/08/23 02:20:38;;;;;;;3.87;3.03;;;;;;;;;;6211675;23;20454;-91
2021/08/23 02:23:06;;;;;;;6.77;2.80;;;;;;;;;;6217062;23;20718;-93
2021/08/23 02:25:34;;;;;;;3.13;2.83;;;14.70;99.90;;;;;;6216590;23;20419;-92
2021/08/23 02:28:01;;;;;;;2.93;2.60;;;;;;;;;;6216682;23;20414;-92
2021/08/23 02:30:28;;;;;;;3.93;2.90;;;;;;;;;;6212854;23;20411;-93
2021/08/23 02:32:55;;;;;;;8.67;2.83;;;;;;;;;;6216732;23;20390;-92
2021/08/23 02:35:23;;;;;;;4.00;3.00;;;;;;;;;;6216707;23;20398;-91
2021/08/23 02:37:50;;;;;;;4.27;3.00;;;;;;;;;;6208352;23;20392;-93
2021/08/23 02:40:17;;;;;;;3.73;2.90;;;;;;;;;;6215979;23;20536;-92
2021/08/23 02:42:45;;;;;;;2.87;2.43;;;;;;;;;;6204713;23;20445;-93
2021/08/23 02:45:13;;;;;;;5.03;2.73;;;;;;;;;;6216732;23;20404;-93
2021/08/23 02:47:40;;;;;;;5.53;3.20;;;;;;;;;;6210739;23;20443;-93
2021/08/23 02:50:08;;;;;;;3.47;2.30;;;;;;;;;;6212082;23;20407;-92
2021/08/23 02:52:36;;;;;;;8.57;3.10;;;;;;;;;;6216669;23;20407;-94
2021/08/23 02:55:04;;;;;;;4.40;2.60;;;;;;;;;;6215707;23;20414;-93
2021/08/23 02:57:31;;;;;;;2.63;2.43;;;;;;;;;;6216543;23;20407;-93
2021/08/23 03:00:00;;;;;;;5.30;2.33;;;;;;;;;;6212450;23;20423;-93
2021/08/23 03:02:27;;;;;;;2.70;2.50;;;;;;;;;;6217262;23;20727;-93
2021/08/23 03:04:54;;;;;;;2.63;2.43;;;;;;;;;;6217111;23;20406;-92
2021/08/23 03:07:21;;;;;;;4.20;2.97;;;;;;;;;;6207975;23;20411;-93
2021/08/23 03:09:48;;;;;;;5.33;3.20;;;;;;;;;;6211612;23;20427;-92
2021/08/23 03:12:16;;;;;;;3.00;2.70;;;;;;;;;;6212232;23;20418;-91
2021/08/23 03:14:43;;;;;;;4.10;3.03;;;;;;;;;;6211930;23;20407;-91
2021/08/23 03:17:11;;;;;;;6.00;3.53;;;;;;;;;;6212549;23;20506;-93
2021/08/23 03:19:39;;;;;;;8.43;3.00;;;;;;;;;;6216368;23;20427;-94
2021/08/23 03:22:06;;;;;;;5.13;2.53;;;;;;;;;;6216704;23;20411;-92
2021/08/23 03:24:33;;;;;;;2.93;2.70;;;;;;;;;;6216274;23;20395;-93
2021/08/23 03:27:00;;;;;;;3.03;2.60;;;;;;;;;;6216658;23;20479;-93
2021/08/23 03:29:28;;;;;;;4.10;3.10;;;;;;;;;;6216444;23;20415;-90
2021/08/23 03:31:55;;;;;;;4.23;3.17;;;;;;;;;;6218025;23;20395;-93
2021/08/23 03:34:23;;;;;;;3.77;3.47;;;;;;;;;;6218733;23;20415;-92
2021/08/23 03:36:50;;;;;;;5.57;2.80;;;;;;;;;;6218387;23;20391;-90
2021/08/23 03:39:17;;;;;;;9.60;3.30;;;;;;;;;;6218940;23;20410;-92
2021/08/23 03:41:45;;;;;;;5.50;3.10;;;;;;;;;;6212098;23;20767;-93
2021/08/23 03:44:12;;;;;;;5.00;3.20;;;;;;;;;;6213467;23;20422;-93
2021/08/23 03:46:39;;;;;;;4.93;3.20;;;;;;;;;;6218389;23;20431;-92
2021/08/23 03:49:06;;;;;;;3.37;2.70;;;14.00;99.90;;;;;;6212637;23;20486;-91
2021/08/23 03:51:35;;;;;;;5.87;2.80;;;;;;;;;;6209586;23;20419;-91
2021/08/23 03:54:02;;;;;;;5.20;2.70;;;;;;;;;;6218565;23;20415;-93
2021/08/23 03:56:29;;;;;;;2.70;2.50;;;;;;;;;;6217755;23;20418;-93
2021/08/23 03:58:56;;;;;;;5.33;3.13;;;;;;;;;;6218154;23;20410;-92
2021/08/23 04:01:23;;;;;;;3.47;2.60;;;;;;;;;;6212370;23;20442;-93
2021/08/23 04:03:50;;;;;;;3.37;2.60;;;;;;;;;;6219064;23;20422;-92
2021/08/23 04:06:17;;;;;;;5.00;2.70;;;;;;;;;;6218253;23;20388;-93
2021/08/23 04:08:45;;;;;;;2.43;2.10;;;14.00;99.90;;;;;;6213618;23;20415;-93
2021/08/23 04:11:13;;;;;;;2.80;2.20;;;14.00;99.90;;;;;;6208819;23;20400;-91
2021/08/23 04:13:40;;;;;;;2.70;2.03;;;;;;;;;;6218267;23;20392;-92
2021/08/23 04:16:11;;;;;;;3.07;2.73;;;14.00;99.90;;;;;;6217966;23;20402;-92
2021/08/23 04:18:38;;;;;;;4.70;3.07;;;;;;;;;;6212254;23;20945;-92
2021/08/23 04:21:07;;;;;;;2.60;2.40;;;;;;;;;;6218142;23;20470;-93
2021/08/23 04:23:35;;;;;;;4.13;2.53;;;;;;;;;;6213293;23;20388;-92
2021/08/23 04:26:03;;;;;;;3.53;2.63;;;;;;;;;;6211521;23;20399;-94
2021/08/23 04:28:37;;;;;;;5.10;2.07;;;;;;;;;;6218162;23;20474;-93
2021/08/23 04:33:56;;;;;;;4.10;2.53;;;;;;;;;;6218326;23;20449;-93
2021/08/23 04:36:24;;;;;;;4.20;2.47;;;;;;;;;;6218220;23;20418;-95
2021/08/23 04:38:51;;;;;;;4.43;2.33;;;;;;;;;;6217553;23;20411;-92
2021/08/23 04:41:20;;;;;;;4.00;2.67;;;;;;;;;;6212711;23;20447;-93
2021/08/23 04:43:47;;;;;;;2.83;2.50;;;;;;;;;;6205928;23;20422;-92
2021/08/23 04:46:14;;;;;;;3.60;2.67;;;;;;;;;;6217362;23;20440;-92
2021/08/23 04:48:41;;;;;;;4.20;2.87;;;;;;;;;;6217459;23;20402;-92
2021/08/23 04:51:08;;;;;;;4.10;2.13;;;;;;;;;;6217664;23;20396;-91
2021/08/23 04:53:38;;;;;;;5.33;2.73;;;14.10;99.90;;;;;;6212949;23;20400;-92
2021/08/23 04:56:14;;;;;;;4.10;2.70;;;14.10;99.90;;;;;;6216549;23;20720;-92
2021/08/23 04:58:42;;;;;;;3.57;2.30;;;;;;;;;;6217918;23;20391;-92
2021/08/23 05:01:10;;;;;;;7.37;2.40;;;;;;;;;;6217980;23;20440;-93
2021/08/23 05:03:37;;;;;;;3.90;2.57;;;;;;;;;;6218099;23;20396;-92
2021/08/23 05:06:04;;;;;;;4.40;2.83;;;;;;;;;;6218094;23;20404;-93
2021/08/23 05:08:31;;;;;;;2.80;2.50;;;;;;;;;;6213212;23;20403;-94
2021/08/23 05:10:58;;;;;;;5.23;2.73;;;;;;;;;;6216738;23;20395;-93
2021/08/23 05:13:25;;;;;;;9.30;3.07;;;;;;;;;;6218039;23;20395;-92
2021/08/23 05:15:54;;;;;;;4.30;2.60;;;14.00;99.90;;;;;;6218023;23;20402;-92
2021/08/23 05:18:21;;;;;;;2.80;2.33;;;;;;;;;;6212807;23;20443;-94
2021/08/23 05:20:48;;;;;;;3.67;2.80;;;;;;;;;;6217238;23;20447;-93
2021/08/23 05:23:15;;;;;;;5.30;2.60;;;;;;;;;;6217660;23;20416;-94
2021/08/23 05:25:42;;;;;;;4.30;3.07;;;;;;;;;;6212188;23;20426;-93
2021/08/23 05:28:09;;;;;;;4.63;2.80;;;;;;;;;;6218103;23;20408;-94
2021/08/23 05:30:36;;;;;;;3.07;2.20;;;;;;;;;;6217332;23;20426;-92
2021/08/23 05:33:05;;;;;;;3.00;2.60;;;;;;;;;;6211929;23;20407;-94
2021/08/23 05:35:32;;;;;;;5.03;2.80;;;;;;;;;;6217448;23;20399;-93
2021/08/23 05:38:04;;;;;;;5.77;2.73;;;;;;;;;;6217663;23;20438;-93
2021/08/23 05:40:32;;;;;;;4.10;2.67;;;;;;;;;;6212428;23;20450;-93
2021/08/23 05:43:01;;;;;;;4.23;3.20;;;;;;;;;;6212157;23;20896;-93
2021/08/23 05:45:29;;;;;;;8.33;2.60;;;;;;;;;;6212207;23;20402;-92
2021/08/23 05:47:56;;;;;;;4.03;3.10;;;;;;;;;;6216847;23;20407;-89
2021/08/23 05:50:24;;;;;;;2.83;2.47;;;14.60;99.90;;;;;;6212615;23;20497;-90
2021/08/23 05:52:51;;;;;;;3.60;2.40;;;;;;;;;;6210890;23;20407;-91
2021/08/23 05:55:18;;;;;;;3.00;2.63;;;;;;;;;;6215868;23;20824;-92
2021/08/23 05:57:45;;;;;;;5.40;2.67;;;;;;;;;;6217187;23;20891;-91
2021/08/23 06:00:17;;;;;;;5.50;2.83;;;14.70;99.90;;;;;;6219581;23;20402;-89
2021/08/23 06:02:47;;;;;;;4.00;2.83;;;14.80;99.90;;;;;;6214250;23;21039;-92
2021/08/23 06:05:15;;;;;;;3.20;2.70;;;;;;;;;;6213419;23;20415;-92
2021/08/23 06:08:08;;;;;;;4.97;3.40;;;14.80;99.90;;;;;;6218634;23;20407;-91
2021/08/23 06:10:36;;;;;;;3.30;3.03;;;;;;;;;;6209181;23;20408;-91
2021/08/23 06:13:03;;;;;;;5.47;2.80;;;;;;;;;;6217294;23;20395;-92
2021/08/23 06:15:30;;;;;;;9.03;3.57;;;;;;;;;;6212175;23;20412;-91
2021/08/23 06:17:57;;;;;;;3.27;2.77;;;;;;;;;;6217371;23;20395;-92
2021/08/23 06:20:24;;;;;;;3.70;2.80;;;;;;;;;;6217337;23;20399;-90
2021/08/23 06:22:52;;;;;;;4.47;3.03;;;15.00;99.90;;;;;;6217177;23;20388;-92
2021/08/23 06:25:19;;;;;;;3.03;2.73;;;;;;;;;;6210076;23;20415;-92
2021/08/23 06:27:46;;;;;;;5.00;2.90;;;;;;;;;;6212162;23;20411;-93
2021/08/23 06:30:14;;;;;;;6.40;3.07;;;;;;;;;;6217318;23;20403;-93
2021/08/23 06:32:41;;;;;;;4.57;3.00;;;;;;;;;;6217691;23;20406;-93
2021/08/23 06:35:08;;;;;;;5.50;2.90;;;;;;;;;;6217220;23;20395;-93
2021/08/23 06:37:37;;;;;;;3.13;2.60;;;;;;;;;;6217261;23;20407;-93
2021/08/23 06:40:08;;;;;;;5.40;3.17;;;15.60;99.90;;;;;;6215984;23;20439;-93
2021/08/23 06:42:36;;;;;;;4.70;3.00;;;;;;;;;;6219556;23;20443;-92
2021/08/23 06:45:14;;;;;;;8.73;3.00;;;15.80;99.90;;;;;;6218387;23;20399;-91
2021/08/23 06:47:41;;;;;;;5.43;3.43;;;;;;;;;;6168941;23;20860;-90
2021/08/23 06:50:09;;;;;;;3.87;2.47;;;15.80;99.90;;;;;;6220499;23;20435;-93
2021/08/23 06:52:37;;;;;;;2.50;2.30;;;;;;;;;;6217382;23;20399;-92
2021/08/23 06:55:06;;;;;;;3.97;2.50;;;15.80;99.90;;;;;;6216243;23;20723;-92
2021/08/23 06:57:33;;;;;;;5.07;2.53;;;;;;;;;;6212267;23;20742;-93
2021/08/23 07:00:00;;;;;;;4.80;2.47;;;;;;;;;;6216859;23;20399;-92
2021/08/23 07:02:27;;;;;;;4.57;2.80;;;;;;;;;;6217063;23;20439;-92
2021/08/23 07:04:54;;;;;;;2.90;2.60;;;;;;;;;;6216536;23;20403;-92
2021/08/23 07:07:21;;;;;;;2.80;2.60;;;;;;;;;;6212399;23;20451;-93
2021/08/23 07:09:48;;;;;;;3.00;2.70;;;;;;;;;;6216521;23;20387;-93
2021/08/23 07:12:17;;;;;;;3.10;2.50;;;;;;;;;;6217263;23;20400;-91
2021/08/23 07:14:51;;;;;;;3.80;2.73;;;;;;;;;;6216561;23;20399;-91
2021/08/23 07:17:18;;;;;;;4.20;2.80;;;;;;;;;;6221227;23;20410;-93
2021/08/23 07:19:45;;;;;;;6.40;2.43;;;;;;;;;;6216199;23;20392;-91
2021/08/23 07:22:18;;;;;;;4.27;2.90;;;;;;;;;;6220283;23;20454;-90
2021/08/23 07:24:46;;;;;;;3.00;2.30;;;;;;;;;;6229737;23;20400;-94
2021/08/23 07:27:13;;;;;;;5.73;2.47;;;;;;;;;;6224840;23;20412;-90
2021/08/23 07:29:44;;;;;;;6.90;2.60;;;;;;;;;;6220786;23;20466;-90
2021/08/23 07:32:11;;;;;;;3.33;2.50;;;;;;;;;;6220440;23;20382;-90
2021/08/23 07:34:39;;;;;;;3.67;2.37;;;17.10;99.90;;;;;;6215957;23;20513;-90
2021/08/23 07:37:06;;;;;;;3.07;2.20;;;;;;;;;;6219155;23;20726;-91
2021/08/23 07:39:40;;;;;;;2.83;2.23;;;;;;;;;;6218135;23;20892;-94
2021/08/23 07:42:07;;;;;;;6.57;2.60;;;;;;;;;;6221428;23;20445;-91
2021/08/23 07:44:34;;;;;;;7.40;2.80;;;;;;;;;;6218772;23;20403;-92
2021/08/23 07:47:03;;;;;;;2.67;2.47;;;18.40;99.90;;;;;;6218523;23;20438;-92
2021/08/23 07:49:30;;;;;;;4.73;2.37;;;;;;;;;;6221719;23;20434;-92
2021/08/23 07:51:58;;;;;;;4.90;2.27;;;;;;;;;;6217428;23;20498;-92
2021/08/23 07:54:25;;;;;;;3.03;2.33;;;;;;;;;;6217122;23;20400;-91
2021/08/23 07:56:52;;;;;;;3.67;2.50;;;;;;;;;;6217236;23;20413;-92
2021/08/23 07:59:19;;;;;;;4.83;2.50;;;;;;;;;;6216710;23;20411;-92
2021/08/23 08:01:46;;;;;;;5.00;2.67;;;;;;;;;;6218169;23;20748;-93
2021/08/23 08:04:14;;;;;;;5.60;2.53;;;17.30;99.90;;;;;;6217359;23;20396;-91
2021/08/23 08:06:44;;;;;;;3.30;2.10;;;;;;;;;;6216721;23;20406;-90
2021/08/23 08:09:11;;;;;;;2.70;2.00;;;;;;;;;;6211651;23;20768;-91
2021/08/23 08:11:38;;;;;;;4.13;2.20;;;;;;;;;;6217340;23;20407;-89
2021/08/23 08:14:05;;;;;;;4.23;2.70;;;;;;;;;;6223938;23;20399;-87
2021/08/23 08:16:32;;;;;;;4.20;3.00;;;;;;;;;;6223695;23;20411;-88
2021/08/23 08:19:00;;;;;;;4.27;2.57;;;;;;;;;;6227446;23;20399;-90
2021/08/23 08:21:30;;;;;;;3.40;2.40;;;18.30;99.90;;;;;;6223119;23;20442;-91
2021/08/23 08:23:59;;;;;;;3.80;2.40;;;;;;;;;;6232954;23;20388;-91
2021/08/23 08:26:27;;;;;;;5.60;2.50;;;;;;;;;;6237267;23;20502;-92
2021/08/23 08:28:54;;;;;;;3.60;2.00;;;;;;;;;;6238896;23;20423;-89
2021/08/23 08:31:21;;;;;;;4.20;2.20;;;;;;;;;;6220123;23;20404;-90
2021/08/23 08:33:51;;;;;;;5.43;2.30;;;18.90;99.90;;;;;;6219501;23;20407;-89
2021/08/23 08:36:18;;;;;;;6.00;2.10;;;;;;;;;;6212322;23;20423;-91
2021/08/23 08:38:48;;;;;;;2.40;2.20;;;;;;;;;;6218806;23;20392;-90
2021/08/23 08:41:15;;;;;;;3.17;2.33;;;;;;;;;;6221966;23;20436;-92
2021/08/23 08:43:42;;;;;;;5.17;3.07;;;;;;;;;;6220406;23;20581;-94
2021/08/23 08:46:10;;;;;;;6.33;2.50;;;;;;;;;;6218701;23;20443;-90
2021/08/23 08:48:39;;;;;;;3.40;2.77;;;;;;;;;;6217268;23;20433;-90
2021/08/23 08:51:06;;;;;;;3.27;2.40;;;;;;;;;;6224154;23;20423;-91
2021/08/23 08:53:35;;;;;;;5.00;2.43;;;;;;;;;;6229341;22;20410;-90
2021/08/23 08:56:04;;;;;;;2.83;2.17;;;;;;;;;;6219737;23;20399;-93
2021/08/23 08:58:32;;;;;;;3.13;2.50;;;;;;;;;;6219424;23;20412;-92
2021/08/23 09:01:00;;;;;;;2.67;2.40;;;;;;;;;;6224860;23;20442;-92
2021/08/23 09:03:32;;;;;;;4.20;2.77;;;18.80;99.90;;;;;;6170362;23;20408;-93
2021/08/23 09:06:02;;;;;;;4.13;2.03;;;18.70;99.90;;;;;;6227960;23;20784;-92
2021/08/23 09:08:29;;;;;;;3.60;2.20;;;;;;;;;;6218465;23;20716;-93
2021/08/23 09:10:57;;;;;;;2.60;2.10;;;;;;;;;;6224496;23;20411;-89
2021/08/23 09:13:26;;;;;;;4.37;2.60;;;19.20;99.90;;;;;;6225774;23;20400;-90
2021/08/23 09:15:55;;;;;;;2.30;2.00;;;19.20;99.90;;;;;;6223225;23;20395;-92
2021/08/23 09:18:23;;;;;;;3.23;2.13;;;19.20;99.90;;;;;;6210745;23;20396;-88
2021/08/23 09:20:58;;;;;;;2.67;2.20;;;18.60;99.90;;;;;;6219246;23;20392;-89
2021/08/23 09:23:37;;;;;;;3.20;2.23;;;18.40;99.90;;;;;;6217369;23;20438;-90
2021/08/23 09:26:12;;;;;;;2.53;2.33;;;18.40;99.90;;;;;;6208968;23;20418;-89
2021/08/23 09:28:42;;;;;;;3.30;2.47;;;18.30;99.90;;;;;;6217447;23;20398;-88
2021/08/23 09:31:11;;;;;;;3.80;2.27;;;;;;;;;;6217349;23;20399;-88
2021/08/23 09:33:42;;;;;;;3.90;2.20;;;18.50;99.90;;;;;;6217042;23;20422;-89
2021/08/23 09:36:11;;;;;;;4.13;2.47;;;;;;;;;;6221338;23;20395;-91
2021/08/23 09:38:39;;;;;;;3.10;2.80;;;;;;;;;;6219655;23;20442;-92
2021/08/23 09:41:06;;;;;;;5.23;2.67;;;;;;;;;;6213930;23;20774;-91
2021/08/23 09:43:35;;;;;;;2.87;2.20;;;;;;;;;;6212817;23;20923;-90
2021/08/23 09:46:10;;;;;;;4.80;2.33;;;18.00;99.90;;;;;;6219152;23;20400;-91
2021/08/23 09:48:39;;;;;;;2.27;2.07;;;18.00;99.90;;;;;;6213136;23;20450;-91
2021/08/23 09:51:07;;;;;;;3.17;2.13;;;;;;;;;;6216095;22;20558;-89
2021/08/23 09:53:35;;;;;;;3.23;2.40;;;;;;;;;;6223498;23;20387;-89
2021/08/23 09:56:02;;;;;;;3.00;2.20;;;;;;;;;;6220074;23;20449;-89
2021/08/23 09:58:30;;;;;;;3.40;2.10;;;18.20;99.90;;;;;;6220703;23;20399;-89
2021/08/23 10:00:57;;;;;;;3.07;2.60;;;;;;;;;;6226887;23;20471;-90
2021/08/23 10:03:29;;;;;;;2.73;2.27;;;18.10;99.90;;;;;;6215772;23;20450;-89
2021/08/23 10:05:56;;;;;;;2.23;2.03;;;;;;;;;;6230616;23;20423;-89
2021/08/23 10:08:26;;;;;;;3.53;2.90;;;18.10;99.90;;;;;;6224147;23;20390;-89
2021/08/23 10:10:53;;;;;;;2.40;2.20;;;;;;;;;;6195226;22;20434;-91
2021/08/23 10:13:22;;;;;;;3.20;2.90;;;;;;;;;;6135751;23;20409;-93
2021/08/23 10:15:49;;;;;;;3.97;2.73;;;;;;;;;;6149748;23;20450;-92
2021/08/23 10:18:16;;;;;;;4.93;2.20;;;18.60;99.90;;;;;;6138243;23;20890;-91
2021/08/23 10:20:45;;;;;;;3.07;2.77;;;;;;;;;;6131179;23;20418;-89
2021/08/23 10:23:25;;;;;;;4.30;2.63;;;19.30;99.90;;;;;;6140551;23;20436;-92
2021/08/23 10:25:52;;;;;;;4.50;2.63;;;;;;;;;;6136892;23;20516;-89
2021/08/23 10:28:34;;;;;;;6.47;3.37;;;19.60;99.90;;;;;;6090870;23;20438;-94
2021/08/23 10:31:07;;;;;;;3.20;2.40;;;19.90;99.90;;;;;;6130792;23;20402;-90
2021/08/23 10:33:37;;;;;;;2.87;2.50;;;20.10;99.90;;;;;;6130685;23;20437;-94
2021/08/23 10:36:07;;;;;;;2.43;1.97;;;20.10;99.90;;;;;;6141750;23;20374;-92
2021/08/23 10:38:35;;;;;;;3.20;2.30;;;;;;;;;;6131391;23;20413;-92
2021/08/23 10:41:09;;;;;;;2.63;2.20;;;19.30;99.90;;;;;;6138920;23;20395;-92
2021/08/23 10:43:48;;;;;;;4.50;2.47;;;19.60;99.90;;;;;;6124997;23;20445;-88
2021/08/23 10:46:24;;;;;;;3.37;2.43;;;19.90;99.90;;;;;;6129436;23;20726;-90
2021/08/23 10:48:53;;;;;;;3.30;2.80;;;20.00;99.90;;;;;;6130728;23;20425;-90
2021/08/23 10:51:36;;;;;;;3.87;2.60;;;20.10;99.90;;;;;;6130727;23;20397;-90
2021/08/23 10:54:08;;;;;;;3.20;2.60;;;20.00;99.90;;;;;;6132887;23;20394;-93
2021/08/23 10:56:38;;;;;;;3.13;2.73;;;19.90;99.90;;;;;;6132275;23;20394;-89
2021/08/23 10:59:19;;;;;;;5.53;3.03;;;19.80;99.90;;;;;;6130592;23;20406;-94
2021/08/23 11:01:59;;;;;;;2.90;2.60;;;19.50;99.90;;;;;;6132830;23;20404;-91
2021/08/23 11:04:37;;;;;;;3.00;2.70;;;19.40;99.90;;;;;;6121477;23;20528;-91
2021/08/23 11:07:07;;;;;;;4.90;3.40;;;19.30;99.90;;;;;;6128305;23;20484;-93
2021/08/23 11:09:37;;;;;;;3.60;3.10;;;19.20;99.90;;;;;;6121392;23;20399;-89
2021/08/23 11:12:08;;;;;;;5.13;2.60;;;;;;;;;;6139552;23;20409;-92
2021/08/23 11:14:47;;;;;;;3.40;3.10;;;19.00;99.90;;;;;;6154017;23;20378;-92
2021/08/23 11:17:14;;;;;;;3.80;2.30;;;;;;;;;;6133497;23;20722;-94
2021/08/23 11:19:41;;;;;;;5.20;3.10;;;18.80;99.90;;;;;;6130814;23;20386;-94
2021/08/23 11:22:11;;;;;;;2.73;2.53;;;18.80;99.90;;;;;;6130243;23;20433;-93
2021/08/23 11:24:38;;;;;;;3.23;2.93;;;;;;;;;;6123067;23;20417;-91
2021/08/23 11:27:06;;;;;;;5.67;3.20;;;18.50;99.90;;;;;;6124964;23;20410;-92
2021/08/23 11:29:38;;;;;;;6.93;3.73;;;18.40;99.90;;;;;;6130312;23;20425;-93
2021/08/23 11:32:08;;;;;;;3.73;3.43;;;18.40;99.90;;;;;;6142107;23;20445;-92
2021/08/23 11:34:36;;;;;;;3.73;3.00;;;18.30;99.90;;;;;;6131907;23;20444;-93
2021/08/23 11:37:06;;;;;;;4.37;3.77;;;18.40;99.90;;;;;;6130659;23;20408;-94
2021/08/23 11:39:36;;;;;;;3.70;3.23;;;;;;;;;;6126260;23;20398;-94
2021/08/23 11:42:05;;;;;;;2.93;2.70;;;18.40;99.90;;;;;;6133614;23;20414;-93
2021/08/23 11:44:37;;;;;;;4.20;3.20;;;;;;;;;;6132364;23;20390;-94
2021/08/23 11:47:06;;;;;;;3.40;3.10;;;18.50;99.90;;;;;;6131659;23;20414;-92
2021/08/23 11:49:40;;;;;;;4.00;3.63;;;18.90;99.90;;;;;;6133958;23;20409;-93
2021/08/23 11:52:14;;;;;;;3.57;2.60;;;19.60;99.90;;;;;;6059925;23;20420;-91
2021/08/23 11:54:47;;;;;;;3.73;2.70;;;20.20;99.90;;;;;;6133400;23;20394;-92
2021/08/23 11:57:14;;;;;;;3.97;3.20;;;;;;;;;;6128686;23;20477;-91
2021/08/23 11:59:41;;;;;;;3.43;3.10;;;;;;;;;;6130846;23;20421;-90
2021/08/23 12:02:12;;;;;;;3.20;2.63;;;21.10;99.90;;;;;;6128025;23;20396;-90
2021/08/23 12:04:40;;;;;;;2.73;2.53;;;;;;;;;;6129509;23;20421;-91
2021/08/23 12:07:07;;;;;;;3.33;2.70;;;;;;;;;;6130322;23;20438;-91
2021/08/23 12:09:34;;;;;;;2.83;2.53;;;;;;;;;;6130011;23;20398;-91
2021/08/23 12:12:05;;;;;;;3.00;2.77;;;20.90;99.90;;;;;;6131155;23;20882;-91
2021/08/23 12:14:32;;;;;;;2.90;2.60;;;;;;;;;;6140847;23;20410;-91
2021/08/23 12:17:07;;;;;;;2.10;1.90;;;20.10;99.90;;;;;;6133149;23;20766;-93
2021/08/23 12:19:34;;;;;;;5.50;2.00;;;;;;;;;;6136595;23;20417;-89
2021/08/23 12:22:04;;;;;;;4.03;2.50;;;;;;;;;;6136629;23;20402;-91
2021/08/23 12:24:33;;;;;;;2.73;2.37;;;;;;;;;;6141920;23;20438;-90
2021/08/23 12:27:02;;;;;;;5.10;2.83;;;20.50;99.90;;;;;;6138219;23;20517;-92
2021/08/23 12:29:36;;;;;;;4.17;2.00;;;20.60;99.90;;;;;;6062061;23;20770;-90
2021/08/23 12:32:07;;;;;;;3.30;2.43;;;20.40;99.90;;;;;;6134319;23;20456;-91
2021/08/23 12:34:39;;;;;;;3.00;2.20;;;20.40;99.90;;;;;;6120376;23;20426;-92
2021/08/23 12:37:06;;;;;;;3.37;1.90;;;;;;;;;;6130157;23;20703;-89
2021/08/23 12:39:34;;;;;;;2.63;2.43;;;;;;;;;;6123790;23;20390;-89
2021/08/23 12:42:05;;;;;;;2.40;2.20;;;20.80;99.90;;;;;;6130210;23;20453;-90
2021/08/23 12:44:34;;;;;;;2.63;1.90;;;20.50;99.90;;;;;;6143865;23;20442;-91
2021/08/23 12:47:02;;;;;;;6.33;1.90;;;;;;;;;;6141116;23;20489;-90
2021/08/23 12:49:29;;;;;;;9.63;2.50;;;;;;;;;;6142265;23;20406;-90
2021/08/23 12:51:56;;;;;;;2.90;2.60;;;;;;;;;;6129627;23;20398;-90
2021/08/23 12:54:23;;;;;;;2.50;2.20;;;;;;;;;;6125907;23;20428;-91
2021/08/23 12:56:51;;;;;;;2.70;2.50;;;;;;;;;;6127832;23;20426;-90
2021/08/23 12:59:18;;;;;;;1.93;1.73;;;;;;;;;;6127772;23;20434;-88
2021/08/23 13:01:46;;;;;;;2.70;2.50;;;21.50;99.90;;;;;;6127430;23;20728;-89
2021/08/23 13:04:14;;;;;;;2.97;2.33;;;;;;;;;;6129767;23;20441;-89
2021/08/23 13:06:41;;;;;;;5.60;2.27;;;;;;;;;;6133293;23;20414;-89
2021/08/23 13:09:12;;;;;;;4.43;2.20;;;;;;;;;;6132705;23;20422;-89
2021/08/23 13:11:39;;;;;;;2.30;2.10;;;;;;;;;;6131037;23;20441;-87
2021/08/23 13:14:06;;;;;;;3.17;2.63;;;;;;;;;;6129047;23;20938;-87
2021/08/23 13:16:35;;;;;;;2.20;2.00;;;;;;;;;;6126881;23;20789;-88
2021/08/23 13:19:03;;;;;;;4.33;2.30;;;;;;;;;;6135149;23;20404;-88
2021/08/23 13:21:30;;;;;;;3.17;2.43;;;;;;;;;;6133993;23;20405;-90
2021/08/23 13:24:00;;;;;;;2.63;1.70;;;;;;;;;;6131870;23;20536;-86
2021/08/23 13:26:29;;;;;;;2.47;2.07;;;;;;;;;;6123436;23;20443;-87
2021/08/23 13:28:56;;;;;;;4.87;2.33;;;;;;;;;;6127370;23;20394;-88
2021/08/23 13:31:26;;;;;;;3.17;2.07;;;;;;;;;;6127460;23;20465;-88
2021/08/23 13:33:53;;;;;;;3.37;2.10;;;;;;;;;;6128116;23;20489;-88
2021/08/23 13:36:23;;;;;;;5.73;2.83;;;21.40;99.90;;;;;;6127679;23;20785;-88
2021/08/23 13:38:50;;;;;;;2.97;1.90;;;;;;;;;;6128410;23;20397;-88
2021/08/23 13:41:17;;;;;;;4.00;2.57;;;;;;;;;;6127215;23;20398;-87
2021/08/23 13:43:46;;;;;;;4.00;2.17;;;;;;;;;;6123997;23;20438;-90
2021/08/23 13:46:14;;;;;;;2.73;2.53;;;;;;;;;;6118557;23;20474;-86
2021/08/23 13:48:41;;;;;;;2.23;2.00;;;;;;;;;;6129200;23;20398;-86
2021/08/23 13:51:08;;;;;;;3.47;2.43;;;;;;;;;;6130832;23;20406;-87
2021/08/23 13:53:36;;;;;;;3.20;2.47;;;23.10;99.90;;;;;;6130822;23;20733;-88
2021/08/23 13:56:04;;;;;;;2.60;1.90;;;;;;;;;;6055653;23;20415;-89
2021/08/23 14:04:56;;;;;;;6.50;3.60;;;;;;;;;;6144969;23;20921;-86
2021/08/23 14:07:23;;;;;;;1.80;1.70;;;;;;;;;;6156882;23;20453;-87
2021/08/23 14:09:51;;;;;;;9.03;4.60;;;23.70;99.90;;;;;;6156682;23;20492;-86
2021/08/23 14:12:18;;;;;;;3.40;2.47;;;;;;;;;;6105848;23;20405;-86
2021/08/23 14:14:45;;;;;;;3.07;1.90;;;;;;;;;;6156568;23;20412;-87
2021/08/23 14:17:13;;;;;;;11.40;5.70;;;;;;;;;;6157315;23;20405;-87
2021/08/23 14:19:40;;;;;;;26.90;15.37;;;;;;;;;;6158303;23;20727;-86
2021/08/23 14:22:08;;;;;;;2.73;2.20;;;21.60;99.90;;;;;;6162480;23;20401;-88
2021/08/23 14:24:35;;;;;;;4.40;1.70;;;;;;;;;;6155238;23;20452;-89
2021/08/23 14:27:04;;;;;;;2.50;2.30;;;22.90;99.90;;;;;;6155811;23;20398;-89